createdAt,value
2018-05-16T15:14:25.039Z,19.60
2018-05-16T15:16:52.343Z,20.00
2018-05-16T15:19:20.321Z,19.60
2018-05-16T15:21:48.380Z,19.50
2018-05-16T15:24:16.365Z,19.50
2018-05-16T15:26:44.320Z,19.40
2018-05-16T15:29:12.377Z,19.40
2018-05-16T15:31:40.471Z,19.40
2018-05-16T15:34:08.504Z,19.40
2018-05-16T15:36:35.790Z,19.30
2018-05-16T15:39:03.907Z,19.40
2018-05-16T15:41:31.215Z,19.30
2018-05-16T15:43:59.295Z,19.40
2018-05-16T15:46:27.531Z,19.40
2018-05-16T15:48:54.777Z,19.30
2018-05-16T15:51:22.150Z,19.40
2018-05-16T15:53:49.475Z,19.40
2018-05-16T15:56:16.809Z,19.30
2018-05-16T15:58:44.023Z,19.30
2018-05-16T16:01:12.334Z,19.40
2018-05-16T16:03:39.612Z,19.30
2018-05-16T16:06:06.879Z,19.30
2018-05-16T16:08:34.400Z,19.30
2018-05-16T16:11:01.676Z,19.30
2018-05-16T16:13:28.949Z,19.40
2018-05-16T16:15:56.242Z,19.30
2018-05-16T16:18:24.258Z,19.30
2018-05-16T16:20:51.617Z,19.30
2018-05-16T16:23:18.860Z,19.30
2018-05-16T16:25:46.071Z,19.30
2018-05-16T16:28:14.032Z,19.30
2018-05-16T16:30:42.096Z,19.30
2018-05-16T16:33:10.321Z,19.30
2018-05-16T16:35:37.608Z,19.30
2018-05-16T16:38:04.956Z,19.30
2018-05-16T16:40:32.493Z,19.30
2018-05-16T16:42:59.775Z,19.30
2018-05-16T16:45:27.128Z,19.30
2018-05-16T16:47:54.327Z,19.30
2018-05-16T16:50:21.561Z,19.30
2018-05-16T16:52:49.840Z,19.30
2018-05-16T16:55:17.885Z,19.30
2018-05-16T16:57:45.075Z,19.30
2018-05-16T17:00:12.379Z,19.30
2018-05-16T17:02:42.329Z,19.30
2018-05-16T17:05:09.963Z,19.30
2018-05-16T17:07:38.327Z,19.30
2018-05-16T17:10:05.667Z,19.30
2018-05-16T17:12:32.811Z,19.30
2018-05-16T17:14:59.982Z,19.30
2018-05-16T17:17:27.202Z,19.30
2018-05-16T17:19:54.592Z,19.30
2018-05-16T17:22:22.440Z,19.30
2018-05-16T17:24:49.720Z,19.30
2018-05-16T17:27:16.980Z,19.30
2018-05-16T17:29:44.224Z,19.30
2018-05-16T17:32:11.355Z,19.30
2018-05-16T17:34:38.533Z,19.30
2018-05-16T17:37:05.996Z,19.30
2018-05-16T17:39:33.152Z,19.30
2018-05-16T17:42:00.565Z,19.30
2018-05-16T17:44:27.725Z,19.30
2018-05-16T17:46:54.964Z,19.30
2018-05-16T17:49:22.120Z,19.30
2018-05-16T17:51:49.288Z,19.30
2018-05-16T17:54:16.539Z,19.30
2018-05-16T17:56:43.700Z,19.30
2018-05-16T17:59:11.148Z,19.30
2018-05-16T18:01:38.863Z,19.30
2018-05-16T18:04:06.776Z,19.30
2018-05-16T18:06:34.018Z,19.20
2018-05-16T18:09:01.670Z,19.30
2018-05-16T18:11:28.966Z,19.30
2018-05-16T18:14:02.244Z,19.30
2018-05-16T18:16:35.387Z,19.30
2018-05-16T18:19:03.378Z,19.30
2018-05-16T18:21:30.664Z,19.30
2018-05-16T18:23:57.881Z,19.30
2018-05-16T18:26:25.245Z,19.30
2018-05-16T18:28:52.517Z,19.30
2018-05-16T18:31:19.951Z,19.30
2018-05-16T18:33:47.219Z,19.30
2018-05-16T18:36:14.970Z,19.30
2018-05-16T18:38:42.121Z,19.30
2018-05-16T18:41:09.397Z,19.30
2018-05-16T18:43:36.642Z,19.30
2018-05-16T18:46:03.765Z,19.30
2018-05-16T18:48:30.944Z,19.30
2018-05-16T18:50:58.080Z,19.30
2018-05-16T18:53:25.323Z,19.30
2018-05-16T18:55:52.471Z,19.30
2018-05-16T18:58:20.036Z,19.30
2018-05-16T19:00:48.338Z,19.30
2018-05-16T19:03:15.660Z,19.30
2018-05-16T19:05:43.031Z,19.30
2018-05-16T19:08:10.079Z,19.30
2018-05-16T19:10:38.452Z,19.30
2018-05-16T19:13:05.928Z,19.30
2018-05-16T19:15:33.061Z,19.30
2018-05-16T19:18:00.176Z,19.30
2018-05-16T19:20:28.196Z,19.30
2018-05-16T19:22:55.445Z,19.20
2018-05-16T19:25:22.595Z,19.30
2018-05-16T19:27:49.799Z,19.30
2018-05-16T19:30:17.907Z,19.30
2018-05-16T19:32:45.145Z,19.20
2018-05-16T19:35:12.398Z,19.30
2018-05-16T19:37:39.732Z,19.30
2018-05-16T19:40:07.826Z,19.30
2018-05-16T19:42:35.007Z,19.20
2018-05-16T19:45:02.253Z,19.30
2018-05-16T19:47:29.403Z,19.30
2018-05-16T19:49:56.663Z,19.30
2018-05-16T19:52:23.903Z,19.30
2018-05-16T19:54:51.044Z,19.20
2018-05-16T19:57:18.198Z,19.20
2018-05-16T19:59:45.346Z,19.30
2018-05-16T20:02:12.460Z,19.30
2018-05-16T20:04:40.349Z,19.30
2018-05-16T20:07:07.471Z,19.20
2018-05-16T20:09:35.393Z,19.30
2018-05-16T20:12:02.613Z,19.20
2018-05-16T20:14:29.814Z,19.30
2018-05-16T20:16:57.029Z,19.30
2018-05-16T20:19:24.144Z,19.30
2018-05-16T20:21:52.044Z,19.30
2018-05-16T20:24:19.148Z,19.20
2018-05-16T20:26:46.360Z,19.30
2018-05-16T20:29:13.585Z,19.30
2018-05-16T20:31:41.145Z,19.20
2018-05-16T20:34:08.271Z,19.20
2018-05-16T20:36:36.179Z,19.20
2018-05-16T20:39:03.418Z,19.20
2018-05-16T20:41:30.579Z,19.20
2018-05-16T20:43:57.696Z,19.20
2018-05-16T20:46:25.580Z,19.20
2018-05-16T20:48:52.738Z,19.20
2018-05-16T20:51:19.908Z,19.20
2018-05-16T20:53:47.032Z,19.20
2018-05-16T20:56:14.155Z,19.20
2018-05-16T20:58:42.048Z,19.20
2018-05-16T21:01:09.303Z,19.20
2018-05-16T21:03:36.858Z,19.20
2018-05-16T21:06:04.041Z,19.20
2018-05-16T21:08:31.159Z,19.20
2018-05-16T21:10:58.323Z,19.20
2018-05-16T21:13:25.440Z,19.20
2018-05-16T21:15:53.326Z,19.20
2018-05-16T21:18:20.456Z,19.10
2018-05-16T21:20:48.461Z,19.20
2018-05-16T21:23:15.597Z,19.10
2018-05-16T21:25:42.713Z,19.20
2018-05-16T21:28:10.588Z,19.10
2018-05-16T21:30:38.497Z,19.10
2018-05-16T21:33:05.632Z,19.10
2018-05-16T21:35:32.780Z,19.10
2018-05-16T21:37:59.961Z,19.10
2018-05-16T21:40:27.096Z,19.10
2018-05-16T21:42:54.359Z,19.10
2018-05-16T21:45:21.482Z,19.10
2018-05-16T21:47:48.636Z,19.10
2018-05-16T21:50:15.792Z,19.10
2018-05-16T21:52:42.931Z,19.10
2018-05-16T21:55:10.060Z,19.10
2018-05-16T21:57:38.051Z,19.10
2018-05-16T22:00:05.269Z,19.10
2018-05-16T22:02:33.188Z,19.10
2018-05-16T22:05:00.305Z,19.00
2018-05-16T22:07:28.699Z,19.10
2018-05-16T22:09:55.864Z,19.00
2018-05-16T22:12:22.978Z,19.10
2018-05-16T22:14:51.001Z,19.10
2018-05-16T22:17:18.124Z,19.00
2018-05-16T22:19:45.282Z,19.10
2018-05-16T22:22:12.407Z,19.00
2018-05-16T22:24:39.522Z,19.10
2018-05-16T22:27:06.628Z,19.10
2018-05-16T22:29:33.783Z,19.00
2018-05-16T22:32:06.655Z,19.10
2018-05-16T22:34:39.487Z,19.10
2018-05-16T22:37:12.232Z,19.10
2018-05-16T22:42:45.973Z,19.00
2018-05-16T22:45:18.931Z,19.00
2018-05-16T22:48:08.843Z,19.00
2018-05-16T22:50:35.971Z,19.00
2018-05-16T22:53:03.096Z,19.00
2018-05-16T22:55:30.235Z,19.00
2018-05-16T22:57:58.125Z,19.00
2018-05-16T23:00:25.332Z,19.00
2018-05-16T23:02:52.436Z,19.00
2018-05-16T23:05:19.545Z,19.00
2018-05-16T23:07:47.424Z,19.00
2018-05-16T23:10:15.323Z,19.00
2018-05-16T23:12:42.436Z,19.00
2018-05-16T23:15:10.332Z,19.00
2018-05-16T23:17:37.452Z,19.00
2018-05-16T23:20:05.355Z,19.00
2018-05-16T23:22:32.469Z,18.90
2018-05-16T23:25:00.472Z,19.00
2018-05-16T23:27:27.575Z,18.90
2018-05-16T23:29:54.780Z,19.00
2018-05-16T23:32:21.901Z,19.00
2018-05-16T23:34:49.008Z,18.90
2018-05-16T23:37:16.124Z,19.00
2018-05-16T23:39:43.275Z,19.00
2018-05-16T23:42:10.398Z,19.00
2018-05-16T23:44:37.511Z,19.00
2018-05-16T23:47:05.017Z,19.00
2018-05-16T23:49:32.134Z,18.90
2018-05-16T23:52:00.017Z,18.90
2018-05-16T23:54:28.005Z,18.90
2018-05-16T23:56:55.255Z,18.90
2018-05-16T23:59:22.374Z,19.00
